Time;durP1;ratioP1;P1;durP2;ratioP2;P2;SDS_P1;SDS_P2;PMS_P1;PMS_P2;Temp;Humidity;BMP_temperature;BMP_pressure;BME280_temperature;BME280_humidity;BME280_pressure;Samples;Min_cycle;Max_cycle;Signal;HPM_P1;HPM_P2
2023/07/21 00:01:00;;;;;;;6.28;3.30;;;;;;;21.29;100.00;92968.00;5088609;28;20477;-71
2023/07/21 00:03:27;;;;;;;4.60;2.88;;;;;;;21.26;99.27;92969.34;5087493;28;20048;-71
2023/07/21 00:05:54;;;;;;;5.72;3.08;;;;;;;21.27;100.00;92968.28;5083430;28;20052;-71
2023/07/21 00:08:21;;;;;;;4.43;2.72;;;;;;;21.28;99.19;92959.38;5087928;28;20054;-71
2023/07/21 00:10:48;;;;;;;5.82;3.05;;;;;;;21.29;98.85;92958.31;5086298;28;20398;-71
2023/07/21 00:13:15;;;;;;;4.85;2.58;;;;;;;21.31;98.91;92968.50;5083087;28;20048;-71
2023/07/21 00:15:45;;;;;;;4.93;2.50;;;;;;;21.29;99.20;92960.16;5087819;28;20509;-71
2023/07/21 00:18:12;;;;;;;9.38;3.00;;;;;;;21.27;99.07;92965.66;5082565;28;20053;-71
2023/07/21 00:20:39;;;;;;;5.50;3.10;;;;;;;21.19;99.54;92968.91;5080368;28;20051;-71
2023/07/21 00:23:05;;;;;;;7.38;3.40;;;;;;;21.17;99.22;92956.16;5087160;28;20510;-71
2023/07/21 00:25:32;;;;;;;5.63;2.78;;;;;;;21.14;99.22;92954.09;5087806;28;20044;-71
2023/07/21 00:27:59;;;;;;;7.60;3.15;;;;;;;21.11;99.83;92962.50;5085353;28;20098;-71
2023/07/21 00:30:26;;;;;;;8.68;2.72;;;;;;;21.06;100.00;92960.72;5076684;28;20404;-72
2023/07/21 00:32:54;;;;;;;6.47;3.40;;;;;;;21.01;100.00;92960.78;5082315;28;20077;-71
2023/07/21 00:35:21;;;;;;;7.28;3.13;;;;;;;20.95;100.00;92951.47;5081391;28;20101;-71
2023/07/21 00:37:47;;;;;;;4.75;3.20;;;;;;;20.97;100.00;92962.41;5087491;28;20456;-72
2023/07/21 00:40:18;;;;;;;8.27;3.40;;;;;;;21.02;100.00;92975.38;5083736;28;20044;-71
2023/07/21 00:42:45;;;;;;;8.02;3.53;;;;;;;21.05;100.00;92980.06;5083671;28;20044;-71
2023/07/21 00:45:14;;;;;;;4.32;2.90;;;;;;;21.06;100.00;92978.22;5086997;28;20044;-72
2023/07/21 00:47:41;;;;;;;4.18;2.85;;;;;;;21.09;100.00;92965.38;5086960;28;20052;-72
2023/07/21 00:50:11;;;;;;;4.88;2.72;;;;;;;21.07;100.00;92956.28;5087142;28;20048;-72
2023/07/21 00:52:39;;;;;;;5.63;3.15;;;;;;;21.04;100.00;92955.00;5083163;28;20048;-72
2023/07/21 00:55:07;;;;;;;7.80;3.47;;;;;;;21.02;100.00;92953.72;5086036;28;20202;-72
2023/07/21 00:57:35;;;;;;;6.82;3.50;;;;;;;21.00;100.00;92948.78;5087314;28;20448;-72
2023/07/21 01:00:06;;;;;;;7.10;3.22;;;;;;;20.96;100.00;92940.75;5087112;28;20043;-72
2023/07/21 01:02:33;;;;;;;6.45;3.47;;;;;;;20.91;100.00;92932.19;5081755;28;20076;-72
2023/07/21 01:05:01;;;;;;;4.72;3.50;;;;;;;20.87;100.00;92926.00;5086311;28;20528;-72
2023/07/21 01:07:31;;;;;;;6.45;3.42;;;;;;;20.80;100.00;92923.69;5079923;28;20044;-72
2023/07/21 01:09:59;;;;;;;5.78;3.65;;;;;;;20.69;100.00;92910.00;5086471;28;20044;-72
2023/07/21 01:12:26;;;;;;;6.97;3.40;;;;;;;20.72;100.00;92908.63;5087359;28;20044;-71
2023/07/21 01:14:53;;;;;;;5.90;3.40;;;;;;;20.72;100.00;92909.44;5081740;28;20105;-71
2023/07/21 01:17:21;;;;;;;4.90;3.03;;;;;;;20.68;100.00;92904.00;5079779;28;20044;-71
2023/07/21 01:19:49;;;;;;;5.68;3.67;;;;;;;20.66;100.00;92902.72;5084975;28;20048;-72
2023/07/21 01:22:22;;;;;;;6.68;4.13;;;;;;;20.58;100.00;92901.50;5087264;28;20048;-72
2023/07/21 01:25:10;;;;;;;6.68;3.67;;;;;;;20.56;100.00;92896.56;5078736;28;20051;-72
2023/07/21 01:27:40;;;;;;;8.43;4.10;;;;;;;20.51;100.00;92886.19;5086350;28;20425;-71
2023/07/21 01:30:11;;;;;;;8.40;3.83;;;;;;;20.50;100.00;92892.47;5086528;28;20086;-72
2023/07/21 01:32:40;;;;;;;6.63;3.38;;;;;;;20.42;100.00;92901.69;5084897;28;20058;-71
2023/07/21 01:35:10;;;;;;;5.45;3.15;;;;;;;20.25;100.00;92896.94;5086965;28;20655;-71
2023/07/21 01:37:38;;;;;;;7.00;3.35;;;;;;;19.97;100.00;92916.75;5083260;28;20043;-72
2023/07/21 01:40:09;;;;;;;8.18;4.18;;;;;;;19.64;100.00;92927.69;5084307;28;20409;-71
2023/07/21 01:42:37;;;;;;;5.47;4.10;;;;;;;18.73;100.00;92934.72;5083348;28;20056;-71
2023/07/21 01:45:05;;;;;;;7.57;4.38;;;;;;;18.73;100.00;92942.53;5086390;28;20550;-73
2023/07/21 01:47:33;;;;;;;6.15;3.70;;;;;;;18.61;100.00;92924.63;5086514;28;20052;-74
2023/07/21 01:50:01;;;;;;;8.75;4.45;;;;;;;18.98;100.00;92943.44;5080675;28;20153;-75
2023/07/21 01:52:29;;;;;;;6.97;4.05;;;;;;;19.13;100.00;92928.81;5081017;28;20041;-75
2023/07/21 01:55:02;;;;;;;11.40;4.25;;;;;;;19.30;100.00;92933.69;5082201;28;20051;-75
2023/07/21 01:57:36;;;;;;;7.57;3.10;;;;;;;19.42;100.00;92935.94;5086120;28;20040;-75
2023/07/21 02:00:04;;;;;;;6.00;3.72;;;;;;;19.51;100.00;92944.72;5084589;28;20397;-75
2023/07/21 02:02:32;;;;;;;7.28;3.60;;;;;;;19.52;100.00;92942.91;5082659;28;20131;-75
2023/07/21 02:04:58;;;;;;;4.60;2.88;;;;;;;19.48;100.00;92933.03;5086244;28;20123;-75
2023/07/21 02:07:25;;;;;;;4.65;2.67;;;;;;;19.59;100.00;92940.75;5082797;28;20040;-75
2023/07/21 02:09:53;;;;;;;4.82;3.22;;;;;;;19.65;100.00;92949.31;5081713;28;20040;-75
2023/07/21 02:12:20;;;;;;;7.65;3.60;;;;;;;19.57;100.00;92919.41;5079730;28;20032;-75
2023/07/21 02:14:48;;;;;;;4.80;3.13;;;;;;;19.62;100.00;92935.00;5079782;28;20048;-75
2023/07/21 02:17:15;;;;;;;7.43;3.92;;;;;;;19.60;100.00;92942.31;5086601;28;20078;-75
2023/07/21 02:19:41;;;;;;;5.35;3.17;;;;;;;19.38;100.00;92909.66;5085422;28;20044;-75
2023/07/21 02:22:08;;;;;;;7.65;3.78;;;;;;;19.56;100.00;92946.50;5082573;28;20516;-75
2023/07/21 02:24:35;;;;;;;10.70;4.35;;;;;;;19.41;100.00;92927.34;5088168;28;20044;-75
2023/07/21 02:27:03;;;;;;;8.43;3.90;;;;;;;19.48;100.00;92938.22;5088718;28;20113;-75
2023/07/21 02:29:30;;;;;;;11.00;4.30;;;;;;;19.41;100.00;92921.34;5088348;28;20501;-75
2023/07/21 02:31:59;;;;;;;9.95;4.45;;;;;;;19.42;100.00;92921.09;5088180;28;20494;-75
2023/07/21 02:34:26;;;;;;;8.48;3.97;;;;;;;19.44;100.00;92934.59;5089374;28;20048;-75
2023/07/21 02:36:53;;;;;;;9.43;3.63;;;;;;;19.41;100.00;92940.38;5088721;28;20047;-75
2023/07/21 02:39:20;;;;;;;15.80;6.00;;;;;;;19.29;100.00;92927.69;5079401;28;20051;-75
2023/07/21 02:41:46;;;;;;;11.43;4.90;;;;;;;19.35;100.00;92942.22;5089480;28;20048;-75
2023/07/21 02:44:13;;;;;;;9.77;4.50;;;;;;;19.31;100.00;92945.66;5085393;28;20048;-75
2023/07/21 02:46:40;;;;;;;13.20;5.35;;;;;;;19.28;100.00;92946.97;5085819;28;20117;-74
2023/07/21 02:49:08;;;;;;;8.70;5.25;;;;;;;19.16;100.00;92942.09;5089033;28;20048;-74
2023/07/21 02:51:35;;;;;;;13.35;4.57;;;;;;;19.11;100.00;92946.56;5085186;28;20448;-75
2023/07/21 02:54:02;;;;;;;11.02;5.00;;;;;;;19.09;100.00;92949.41;5089494;28;20085;-74
2023/07/21 02:56:29;;;;;;;15.32;5.93;;;;;;;18.96;100.00;92937.75;5089236;28;20048;-75
2023/07/21 02:58:56;;;;;;;10.93;5.03;;;;;;;19.01;100.00;92953.34;5085985;28;20048;-75
2023/07/21 03:01:24;;;;;;;7.80;4.50;;;;;;;18.93;100.00;92954.66;5089009;28;20513;-74
2023/07/21 03:03:54;;;;;;;15.15;5.07;;;;;;;18.94;100.00;92955.47;5088679;28;20048;-75
2023/07/21 03:06:22;;;;;;;13.07;5.35;;;;;;;18.92;100.00;92966.13;5085719;28;20044;-75
2023/07/21 03:08:49;;;;;;;17.23;5.07;;;;;;;18.91;100.00;92964.59;5088665;28;20080;-75
2023/07/21 03:11:17;;;;;;;8.80;4.55;;;;;;;18.88;100.00;92946.13;5089162;28;20463;-75
2023/07/21 03:13:44;;;;;;;12.68;4.80;;;;;;;18.94;100.00;92966.63;5079587;28;20078;-75
2023/07/21 03:16:12;;;;;;;9.95;5.43;;;;;;;18.92;100.00;92954.94;5086275;28;20131;-74
2023/07/21 03:18:38;;;;;;;10.65;4.63;;;;;;;18.93;100.00;92961.72;5083947;28;20043;-72
2023/07/21 03:21:05;;;;;;;10.05;4.75;;;;;;;18.93;100.00;92961.72;5088322;28;20463;-72
2023/07/21 03:23:33;;;;;;;15.65;5.40;;;;;;;18.93;100.00;92961.72;5088062;28;20052;-72
2023/07/21 03:26:00;;;;;;;12.95;4.60;;;;;;;18.88;100.00;92965.09;5083807;28;20464;-72
2023/07/21 03:28:27;;;;;;;10.98;4.78;;;;;;;18.92;100.00;92971.34;5088274;28;20048;-72
2023/07/21 03:30:58;;;;;;;7.57;4.35;;;;;;;18.91;100.00;92972.38;5086212;28;20555;-72
2023/07/21 03:33:25;;;;;;;9.70;4.00;;;;;;;18.90;100.00;92977.84;5088437;28;20062;-72
2023/07/21 03:35:59;;;;;;;9.57;5.40;;;;;;;18.86;100.00;92969.00;5088284;28;20052;-72
2023/07/21 03:38:27;;;;;;;13.47;5.17;;;;;;;18.85;100.00;92973.47;5087590;28;20127;-72
2023/07/21 03:41:02;;;;;;;10.82;4.70;;;;;;;18.83;100.00;92973.72;5082206;28;20048;-72
2023/07/21 03:43:28;;;;;;;12.27;5.22;;;;;;;18.81;100.00;92975.81;5087630;28;20043;-72
2023/07/21 03:45:59;;;;;;;10.55;5.00;;;;;;;18.78;100.00;92976.34;5085324;28;20055;-72
2023/07/21 03:48:26;;;;;;;11.88;4.70;;;;;;;18.72;100.00;92979.22;5088801;28;20095;-72
2023/07/21 03:50:58;;;;;;;10.75;5.68;;;;;;;18.65;100.00;92969.88;5086788;28;20472;-72
2023/07/21 03:53:25;;;;;;;10.98;4.97;;;;;;;18.66;100.00;92974.03;5088157;28;20051;-72
2023/07/21 03:55:52;;;;;;;11.40;5.63;;;;;;;18.70;100.00;92979.47;5088392;28;20630;-72
2023/07/21 03:58:21;;;;;;;15.07;5.43;;;;;;;18.75;100.00;92984.66;5094083;28;20048;-72
2023/07/21 04:00:49;;;;;;;16.35;5.30;;;;;;;18.76;100.00;92972.44;5088882;28;20052;-72
2023/07/21 04:03:17;;;;;;;11.52;5.50;;;;;;;18.83;100.00;92983.34;5091034;28;20043;-72
2023/07/21 04:05:44;;;;;;;16.27;5.78;;;;;;;18.88;100.00;92979.97;5089876;28;20063;-73
2023/07/21 04:08:10;;;;;;;10.32;4.88;;;;;;;18.92;100.00;92984.34;5091584;28;20142;-72
2023/07/21 04:10:40;;;;;;;11.55;5.07;;;;;;;18.95;100.00;92978.63;5089887;28;20051;-72
2023/07/21 04:13:08;;;;;;;13.90;6.00;;;;;;;18.98;100.00;92985.09;5089632;28;20052;-72
2023/07/21 04:15:36;;;;;;;10.77;5.32;;;;;;;18.99;100.00;92986.66;5088689;28;20241;-72
2023/07/21 04:18:03;;;;;;;11.00;5.30;;;;;;;19.03;100.00;92986.91;5090405;28;20457;-73
2023/07/21 04:20:30;;;;;;;13.45;5.13;;;;;;;19.04;100.00;92989.28;5101452;28;20036;-73
2023/07/21 04:22:57;;;;;;;12.30;6.15;;;;;;;19.14;100.00;92987.66;5092632;28;20043;-72
2023/07/21 04:25:23;;;;;;;14.05;5.55;;;;;;;19.19;100.00;92993.63;5090240;28;20125;-72
2023/07/21 04:27:53;;;;;;;13.75;5.10;;;;;;;19.25;100.00;92996.22;5094032;28;20082;-72
2023/07/21 04:30:20;;;;;;;16.55;5.22;;;;;;;19.28;100.00;92991.22;5093161;28;20051;-72
2023/07/21 04:32:48;;;;;;;12.25;5.25;;;;;;;19.31;100.00;93000.34;5093645;28;20078;-72
2023/07/21 04:35:16;;;;;;;10.45;4.60;;;;;;;19.35;100.00;92996.16;5086379;28;20048;-72
2023/07/21 04:37:43;;;;;;;10.55;6.15;;;;;;;19.42;100.00;93003.66;5106119;28;20059;-72
2023/07/21 04:40:11;;;;;;;12.20;5.40;;;;;;;19.46;100.00;92997.66;5086696;28;20135;-72
2023/07/21 04:42:38;;;;;;;11.88;5.50;;;;;;;19.49;100.00;92997.09;5097733;28;20056;-72
2023/07/21 04:45:11;;;;;;;11.02;5.80;;;;;;;19.55;100.00;92995.25;5106271;28;20047;-72
2023/07/21 04:47:40;;;;;;;15.85;6.47;;;;;;;19.64;100.00;93003.25;5091319;28;20109;-72
2023/07/21 04:50:09;;;;;;;13.85;4.93;;;;;;;19.73;100.00;92995.66;5087869;28;20597;-72
2023/07/21 04:52:37;;;;;;;16.95;5.93;;;;;;;19.77;100.00;92999.25;5087777;28;20097;-72
2023/07/21 04:55:05;;;;;;;13.02;5.68;;;;;;;19.86;100.00;92996.84;5086822;28;20138;-72
2023/07/21 04:57:32;;;;;;;18.20;5.40;;;;;;;19.92;100.00;93010.63;5090152;28;20051;-72
2023/07/21 04:59:59;;;;;;;13.90;5.32;;;;;;;19.90;100.00;92996.03;5093485;28;20040;-73
2023/07/21 05:02:28;;;;;;;11.45;5.15;;;;;;;20.04;100.00;93008.44;5088031;28;20484;-73
2023/07/21 05:04:57;;;;;;;9.25;5.43;;;;;;;20.17;100.00;93001.81;5083206;28;20093;-73
2023/07/21 05:07:26;;;;;;;11.32;5.25;;;;;;;20.28;100.00;93005.13;5102039;28;20079;-73
2023/07/21 05:09:55;;;;;;;12.95;5.05;;;;;;;20.36;100.00;93007.13;5092064;28;20446;-73
2023/07/21 05:12:23;;;;;;;11.27;4.93;;;;;;;20.40;100.00;93002.94;5103646;28;20040;-72
2023/07/21 05:14:49;;;;;;;13.32;4.40;;;;;;;20.52;100.00;93015.59;5090407;28;20089;-72
2023/07/21 05:17:17;;;;;;;10.18;4.85;;;;;;;20.43;100.00;92986.72;5093960;28;20054;-72
2023/07/21 05:19:43;;;;;;;9.35;3.88;;;;;;;20.71;99.62;93022.72;5106521;28;20044;-72
2023/07/21 05:22:10;;;;;;;8.85;3.35;;;;;;;20.77;95.22;93016.38;5096285;28;20473;-72
2023/07/21 05:24:39;;;;;;;8.00;3.88;;;;;;;20.90;96.27;93016.78;5088153;28;20496;-72
2023/07/21 05:27:06;;;;;;;6.85;3.80;;;;;;;20.93;95.35;93016.25;5087255;28;20093;-72
2023/07/21 05:29:33;;;;;;;10.77;3.92;;;;;;;21.10;97.20;93015.75;5082966;28;20040;-73
2023/07/21 05:32:00;;;;;;;9.77;3.80;;;;;;;21.20;95.10;93013.03;5098069;28;20048;-73
2023/07/21 05:34:27;;;;;;;10.00;5.40;;;;;;;21.41;94.55;93014.59;5106024;28;20054;-73
2023/07/21 05:36:53;;;;;;;11.52;4.40;;;;;;;21.51;91.34;93003.25;5089256;28;20055;-73
2023/07/21 05:39:20;;;;;;;8.52;4.30;;;;;;;21.66;91.14;93012.69;5089672;28;20048;-72
2023/07/21 05:41:48;;;;;;;10.55;5.00;;;;;;;21.80;92.03;93013.53;5082155;28;20407;-72
2023/07/21 05:44:15;;;;;;;10.93;4.32;;;;;;;21.87;91.24;93021.81;5091516;28;20119;-72
2023/07/21 05:46:44;;;;;;;9.43;4.22;;;;;;;22.06;91.99;93017.59;5087184;28;20044;-72
2023/07/21 05:49:11;;;;;;;7.78;4.07;;;;;;;22.21;90.65;93022.59;5086958;28;20048;-72
2023/07/21 05:51:38;;;;;;;9.98;4.50;;;;;;;22.42;90.70;93022.25;5089403;28;20046;-72
2023/07/21 05:54:04;;;;;;;10.50;5.07;;;;;;;22.69;90.85;93018.91;5088346;28;20529;-72
2023/07/21 05:56:31;;;;;;;8.20;4.25;;;;;;;22.94;88.76;93019.50;5095394;28;20416;-72
2023/07/21 05:58:59;;;;;;;10.48;4.35;;;;;;;23.20;87.21;93016.34;5090770;28;20097;-72
2023/07/21 06:01:28;;;;;;;7.00;3.90;;;;;;;23.47;86.22;93024.50;5099923;28;20056;-72
2023/07/21 06:03:54;;;;;;;11.25;4.80;;;;;;;23.78;84.88;93012.56;5101387;28;20059;-72
2023/07/21 06:06:23;;;;;;;10.20;4.35;;;;;;;24.06;83.20;93017.69;5095581;28;20101;-72
2023/07/21 06:08:51;;;;;;;7.57;4.65;;;;;;;24.31;83.25;93020.78;5090690;28;20079;-73
2023/07/21 06:11:18;;;;;;;9.15;4.40;;;;;;;24.59;82.22;93008.28;5089671;28;20066;-73
2023/07/21 06:13:44;;;;;;;10.77;5.35;;;;;;;24.89;80.98;93010.41;5098253;28;20460;-72
2023/07/21 06:16:13;;;;;;;11.55;5.05;;;;;;;25.15;78.68;93004.44;5107564;28;20436;-72
2023/07/21 06:18:41;;;;;;;12.80;4.18;;;;;;;25.32;77.37;93004.47;5096945;28;20054;-73
2023/07/21 06:21:08;;;;;;;9.13;4.65;;;;;;;25.63;77.20;92999.44;5090442;28;20052;-73
2023/07/21 06:23:34;;;;;;;9.30;4.35;;;;;;;25.85;75.51;93001.91;5088197;28;20048;-73
2023/07/21 06:26:01;;;;;;;11.50;5.38;;;;;;;26.17;72.73;92993.00;5101750;28;20493;-73
2023/07/21 06:28:28;;;;;;;11.80;4.47;;;;;;;26.46;70.27;92991.56;5108295;28;20047;-73
2023/07/21 06:30:55;;;;;;;7.90;3.45;;;;;;;26.73;68.32;92989.59;5107143;28;20055;-72
2023/07/21 06:33:23;;;;;;;7.95;3.40;;;;;;;26.97;66.89;92985.66;5097412;28;20479;-73
2023/07/21 06:35:52;;;;;;;13.80;3.83;;;;;;;27.23;64.32;92985.50;5090160;28;20126;-73
2023/07/21 06:38:19;;;;;;;8.73;4.03;;;;;;;27.50;65.71;92988.75;5087663;28;20055;-73
2023/07/21 06:40:45;;;;;;;9.65;3.85;;;;;;;27.67;63.03;92993.13;5103688;28;20564;-73
2023/07/21 06:43:13;;;;;;;9.55;3.60;;;;;;;27.76;61.35;92994.94;5107819;28;20116;-74
2023/07/21 06:45:41;;;;;;;11.63;3.75;;;;;;;27.12;62.43;92997.50;5099927;28;20106;-73
2023/07/21 06:48:08;;;;;;;6.40;2.80;;;;;;;26.99;62.87;92994.81;5097717;28;20056;-73
2023/07/21 06:50:38;;;;;;;5.63;2.58;;;;;;;26.62;63.13;93000.50;5100168;28;20109;-73
2023/07/21 06:53:05;;;;;;;5.63;3.22;;;;;;;26.88;62.86;93004.13;5095930;28;20067;-73
2023/07/21 06:55:35;;;;;;;5.63;2.80;;;;;;;26.90;62.90;92986.13;5108738;28;20089;-73
2023/07/21 06:58:02;;;;;;;6.80;2.42;;;;;;;27.50;62.90;92998.50;5083474;28;20052;-73
2023/07/21 07:00:28;;;;;;;6.85;3.40;;;;;;;27.61;61.42;92999.69;5088232;28;20048;-73
2023/07/21 07:02:56;;;;;;;7.53;2.80;;;;;;;28.17;62.61;92998.56;5091653;28;20043;-73
2023/07/21 07:05:23;;;;;;;6.68;3.20;;;;;;;28.50;59.30;93003.06;5087557;28;20486;-73
2023/07/21 07:07:53;;;;;;;8.13;2.97;;;;;;;28.77;59.71;92992.19;5089901;28;20093;-74
2023/07/21 07:10:19;;;;;;;5.38;2.63;;;;;;;28.78;56.24;93001.66;5086692;28;20533;-73
2023/07/21 07:12:46;;;;;;;4.82;2.65;;;;;;;29.01;57.62;92995.97;5084090;28;20052;-73
2023/07/21 07:15:13;;;;;;;5.95;3.13;;;;;;;29.00;58.34;92995.19;5089567;28;20047;-73
2023/07/21 07:17:40;;;;;;;8.07;2.92;;;;;;;29.07;56.39;93000.69;5107298;28;20055;-73
2023/07/21 07:20:09;;;;;;;5.63;2.33;;;;;;;29.22;56.44;92993.19;5091000;28;20043;-73
2023/07/21 07:22:36;;;;;;;7.25;3.42;;;;;;;29.13;58.12;92993.31;5101378;28;20409;-74
2023/07/21 07:25:05;;;;;;;6.22;2.70;;;;;;;29.54;55.94;93000.53;5095416;28;20515;-73
2023/07/21 07:27:32;;;;;;;6.97;3.03;;;;;;;29.39;56.53;93002.75;5089517;28;20043;-73
2023/07/21 07:29:59;;;;;;;5.35;2.55;;;;;;;29.10;56.80;92990.56;5089300;28;20468;-74
2023/07/21 07:32:25;;;;;;;7.95;2.78;;;;;;;28.99;57.05;93009.53;5094432;28;20048;-73
2023/07/21 07:34:56;;;;;;;7.45;2.72;;;;;;;28.95;56.76;92969.00;5082352;28;20049;-73
2023/07/21 07:37:24;;;;;;;7.40;3.03;;;;;;;29.08;56.27;92998.84;5103431;28;20483;-73
2023/07/21 07:39:51;;;;;;;9.57;3.20;;;;;;;29.25;56.49;93003.09;5107695;28;20048;-73
2023/07/21 07:42:19;;;;;;;5.70;2.70;;;;;;;29.62;53.62;93001.53;5096383;27;20047;-73
2023/07/21 07:44:46;;;;;;;14.68;4.43;;;;;;;29.73;53.28;93000.72;5081244;28;20042;-73
2023/07/21 07:47:12;;;;;;;9.77;2.65;;;;;;;29.87;55.09;92983.66;5094662;28;20087;-73
2023/07/21 07:49:39;;;;;;;7.53;2.67;;;;;;;30.31;51.99;92990.88;5091919;28;20101;-73
2023/07/21 07:52:09;;;;;;;8.32;2.83;;;;;;;30.37;51.71;92992.16;5096059;28;20060;-73
2023/07/21 07:54:36;;;;;;;10.30;3.10;;;;;;;30.87;53.18;92986.53;5105670;27;20584;-73
2023/07/21 07:57:03;;;;;;;8.38;3.67;;;;;;;30.84;49.86;92989.91;5106348;28;20386;-73
2023/07/21 07:59:31;;;;;;;8.95;3.30;;;;;;;31.29;51.59;92993.16;5094641;28;20052;-73
2023/07/21 08:01:58;;;;;;;11.75;3.53;;;;;;;30.85;50.96;92990.66;5088631;28;20052;-73
2023/07/21 08:04:26;;;;;;;9.65;3.17;;;;;;;31.42;52.27;92993.06;5088839;28;20390;-73
2023/07/21 08:06:52;;;;;;;24.48;5.88;;;;;;;31.80;50.59;92994.19;5095310;28;20043;-73
2023/07/21 08:09:19;;;;;;;14.00;5.15;;;;;;;31.88;48.21;92987.16;5088512;28;20052;-73
2023/07/21 08:11:47;;;;;;;16.45;4.68;;;;;;;32.07;48.25;93002.31;5081843;28;20044;-74
2023/07/21 08:14:13;;;;;;;13.20;4.15;;;;;;;32.40;47.93;92995.66;5096215;28;20043;-74
2023/07/21 08:16:41;;;;;;;10.20;3.72;;;;;;;32.68;47.48;92996.53;5090094;28;20043;-73
2023/07/21 08:19:08;;;;;;;9.32;3.00;;;;;;;32.96;45.37;92990.13;5097369;28;20044;-73
2023/07/21 08:21:35;;;;;;;9.15;3.55;;;;;;;33.14;42.68;92993.03;5105266;28;20084;-74
2023/07/21 08:24:02;;;;;;;6.68;2.58;;;;;;;32.20;44.34;92989.63;5089645;28;20098;-74
2023/07/21 08:26:29;;;;;;;6.10;3.03;;;;;;;32.84;46.15;92987.63;5099381;28;20089;-73
2023/07/21 08:28:55;;;;;;;8.77;3.03;;;;;;;32.61;44.47;92969.81;5105377;28;20108;-74
2023/07/21 08:31:22;;;;;;;10.98;3.70;;;;;;;32.79;45.26;92988.72;5105464;28;20074;-74
2023/07/21 08:33:51;;;;;;;7.78;2.70;;;;;;;33.10;44.71;92994.13;5093903;28;20062;-73
2023/07/21 08:36:18;;;;;;;8.68;3.28;;;;;;;33.03;42.61;92998.22;5100464;28;20044;-74
2023/07/21 08:38:45;;;;;;;8.38;3.05;;;;;;;33.15;44.68;92993.81;5088032;28;20489;-74
2023/07/21 08:41:17;;;;;;;9.95;3.15;;;;;;;33.66;43.67;92989.19;5088178;28;20089;-73
2023/07/21 08:43:45;;;;;;;8.10;2.97;;;;;;;34.11;44.87;92990.06;5081391;28;20481;-73
2023/07/21 08:46:11;;;;;;;7.68;2.60;;;;;;;34.37;42.23;92991.09;5096970;28;20044;-74
2023/07/21 08:48:40;;;;;;;4.85;2.05;;;;;;;34.72;42.23;92993.69;5092220;28;20052;-74
2023/07/21 08:51:09;;;;;;;5.75;2.03;;;;;;;34.75;43.08;92985.72;5085934;28;20093;-74
2023/07/21 08:53:36;;;;;;;6.10;2.63;;;;;;;35.15;41.11;92987.91;5086426;28;20490;-73
2023/07/21 08:56:03;;;;;;;6.53;2.83;;;;;;;35.15;40.76;92982.56;5104630;28;20516;-73
2023/07/21 08:58:30;;;;;;;5.95;2.92;;;;;;;35.41;38.59;92988.81;5104521;28;20097;-73
2023/07/21 09:00:58;;;;;;;8.55;2.75;;;;;;;35.42;40.12;92993.03;5086514;28;20052;-74
2023/07/21 09:03:27;;;;;;;6.75;2.42;;;;;;;35.74;40.99;92989.75;5085495;28;20044;-74
2023/07/21 09:05:56;;;;;;;11.13;2.75;;;;;;;36.01;40.13;92992.16;5087403;28;20043;-74
2023/07/21 09:08:27;;;;;;;10.15;2.70;;;;;;;36.19;39.37;92991.44;5084221;28;20502;-74
2023/07/21 09:10:57;;;;;;;6.70;2.28;;;;;;;35.53;38.19;92991.16;5106729;28;20051;-74
2023/07/21 09:13:25;;;;;;;7.93;2.40;;;;;;;34.25;40.48;92986.03;5106134;28;20048;-74
2023/07/21 09:15:53;;;;;;;7.80;2.70;;;;;;;34.69;41.18;92981.84;5090815;28;20505;-74
2023/07/21 09:18:25;;;;;;;6.40;2.42;;;;;;;35.11;40.40;92979.09;5088651;28;20100;-74
2023/07/21 09:20:52;;;;;;;3.63;2.08;;;;;;;35.38;37.88;92979.66;5088047;28;20052;-73
2023/07/21 09:23:20;;;;;;;10.32;2.53;;;;;;;35.65;40.13;92979.44;5080904;28;20040;-73
2023/07/21 09:25:53;;;;;;;7.22;1.95;;;;;;;35.78;38.19;92982.53;5084002;28;20833;-74
2023/07/21 09:28:20;;;;;;;4.20;1.48;;;;;;;36.08;38.06;92972.66;5083193;28;20066;-73
2023/07/21 09:30:51;;;;;;;5.60;1.85;;;;;;;36.22;38.73;92967.38;5084184;28;20105;-74
2023/07/21 09:33:23;;;;;;;5.28;2.10;;;;;;;36.60;39.21;92974.31;5088093;28;20119;-73
2023/07/21 09:35:50;;;;;;;8.15;2.55;;;;;;;36.63;36.72;92981.56;5085613;28;20049;-74
2023/07/21 09:38:17;;;;;;;5.22;2.35;;;;;;;36.75;36.44;92988.47;5109483;28;20047;-73
2023/07/21 09:40:43;;;;;;;7.85;1.83;;;;;;;36.92;36.30;92978.13;5097708;28;20048;-74
2023/07/21 09:43:13;;;;;;;5.07;1.58;;;;;;;36.94;36.30;92973.94;5100932;28;20051;-73
2023/07/21 09:45:42;;;;;;;4.20;2.08;;;;;;;36.95;35.45;92972.00;5106215;28;20134;-73
2023/07/21 09:48:11;;;;;;;6.07;2.40;;;;;;;37.01;35.01;92978.47;5091218;28;20060;-73
2023/07/21 09:50:38;;;;;;;5.28;1.95;;;;;;;37.05;36.59;92976.56;5105728;28;20048;-73
2023/07/21 09:53:05;;;;;;;5.40;2.55;;;;;;;37.18;34.96;92971.59;5098557;28;20094;-74
2023/07/21 09:55:40;;;;;;;4.72;1.60;;;;;;;37.11;33.34;92942.94;5091171;28;20093;-74
2023/07/21 09:58:10;;;;;;;6.85;2.00;;;;;;;37.36;34.76;92963.53;5090926;28;20937;-74
2023/07/21 10:00:41;;;;;;;5.25;1.80;;;;;;;37.55;34.60;92964.22;5092334;28;20044;-74
2023/07/21 10:03:08;;;;;;;5.18;2.08;;;;;;;37.39;33.47;92968.09;5095172;28;20078;-73
2023/07/21 10:05:38;;;;;;;6.03;1.90;;;;;;;37.14;34.40;92973.53;5090917;28;20584;-74
2023/07/21 10:08:09;;;;;;;6.30;2.30;;;;;;;37.41;34.39;92970.41;5098082;28;20097;-77
2023/07/21 10:10:37;;;;;;;6.97;2.63;;;;;;;37.36;34.82;92970.78;5090548;28;20126;-76
2023/07/21 10:13:07;;;;;;;3.42;1.70;;;;;;;37.23;34.82;92971.22;5090699;28;20048;-76
2023/07/21 10:15:34;;;;;;;5.30;1.83;;;;;;;37.34;34.10;92975.78;5086555;28;20049;-76
2023/07/21 10:18:06;;;;;;;4.93;2.15;;;;;;;37.37;34.98;92970.41;5095233;28;20097;-76
2023/07/21 10:20:44;;;;;;;5.45;1.85;;;;;;;37.31;34.90;92977.31;5104070;28;20157;-76
2023/07/21 10:23:13;;;;;;;10.05;2.70;;;;;;;37.51;34.45;92982.22;5093513;27;20052;-76
2023/07/21 10:25:56;;;;;;;7.50;2.75;;;;;;;37.37;31.17;92977.66;5097131;28;20176;-76
2023/07/21 10:28:24;;;;;;;9.38;2.72;;;;;;;37.38;31.35;92971.19;5088463;28;20058;-76
2023/07/21 10:30:52;;;;;;;7.30;2.80;;;;;;;37.67;32.61;92968.44;5092900;28;20519;-76
2023/07/21 10:33:21;;;;;;;4.90;2.42;;;;;;;37.74;32.78;92975.66;5092788;28;20052;-76
2023/07/21 10:35:50;;;;;;;8.77;2.28;;;;;;;37.77;31.58;92974.88;5088312;28;20058;-76
2023/07/21 10:38:20;;;;;;;4.68;2.58;;;;;;;37.44;31.82;92965.03;5099818;28;20047;-76
2023/07/21 10:40:47;;;;;;;4.80;1.52;;;;;;;37.79;33.06;92967.22;5087208;28;20040;-76
2023/07/21 10:43:14;;;;;;;5.65;2.83;;;;;;;37.75;33.15;92966.47;5100216;28;20127;-77
2023/07/21 10:45:41;;;;;;;7.32;2.90;;;;;;;37.95;32.24;92964.84;5097130;28;20043;-76
2023/07/21 10:48:11;;;;;;;5.72;2.53;;;;;;;38.33;33.55;92955.44;5090773;28;20496;-76
2023/07/21 10:50:41;;;;;;;4.55;1.90;;;;;;;38.33;32.74;92942.81;5090653;28;20494;-76
2023/07/21 10:53:08;;;;;;;5.50;2.67;;;;;;;38.35;33.09;92961.16;5092420;28;20055;-76
2023/07/21 10:55:37;;;;;;;7.32;2.58;;;;;;;38.28;33.42;92961.22;5087900;28;20547;-76
2023/07/21 10:58:04;;;;;;;6.43;2.25;;;;;;;38.45;33.04;92959.59;5092503;28;20119;-77
2023/07/21 11:00:43;;;;;;;6.47;2.42;;;;;;;38.49;33.16;92950.34;5089859;28;20139;-76
2023/07/21 11:03:09;;;;;;;8.43;2.30;;;;;;;38.27;31.32;92943.63;5091231;28;20077;-76
2023/07/21 11:05:37;;;;;;;5.75;2.42;;;;;;;38.36;32.51;92936.63;5093558;27;20417;-76
2023/07/21 11:08:05;;;;;;;7.28;2.65;;;;;;;38.34;33.07;92947.00;5094323;28;20052;-76
2023/07/21 11:10:33;;;;;;;5.35;2.30;;;;;;;38.42;30.99;92939.66;5090289;28;20101;-76
2023/07/21 11:13:00;;;;;;;5.55;2.00;;;;;;;38.49;31.76;92938.84;5092687;28;20052;-76
2023/07/21 11:15:27;;;;;;;8.35;1.92;;;;;;;38.45;31.80;92924.72;5089426;28;20044;-76
2023/07/21 11:17:58;;;;;;;4.63;2.17;;;;;;;38.59;31.69;92927.28;5090052;28;20129;-76
2023/07/21 11:20:25;;;;;;;5.47;2.08;;;;;;;38.58;30.24;92946.47;5089464;28;20044;-76
2023/07/21 11:22:52;;;;;;;6.10;1.88;;;;;;;38.62;30.99;92947.19;5099999;28;20044;-76
2023/07/21 11:25:20;;;;;;;4.28;1.70;;;;;;;38.27;30.82;92940.94;5089339;28;20496;-77
2023/07/21 11:27:48;;;;;;;4.43;1.75;;;;;;;38.30;30.65;92938.22;5090493;28;20127;-77
2023/07/21 11:30:17;;;;;;;4.78;2.05;;;;;;;38.20;29.41;92944.41;5089384;28;20052;-76